Weather at Smithville Crawford Municipal Airport

Public forecast

Using degrees Fahrenheit for public forecast. Weather courtesy of forecast.io.

Closest aviation weather report (METAR) to Smithville Crawford Municipal Airport

Closest report is Giddings-Lee County Airport, 12.8 nm (23.7 km) NE. Retrieved 2020/09/24 20:35 UTC (0 seconds ago):

KGYB 242035Z AUTO 35008KT 10SM SCT023 OVC034 25/18 A2995 RMK AO2 T02510184

Closest aviation forecast (TAF) to Smithville Crawford Municipal Airport

Closest forecast is Austin Bergstrom International Airport, 27.9 nm (51.7 km) WNW. Retrieved 2020/09/24 18:27 UTC (2 hours ago):

TAF KAUS 241724Z 2418/2524 36008KT P6SM OVC030 TEMPO 2421/2424 SCT030 FM250000 VRB03KT P6SM FEW250